createdAt,value
2022-11-22T00:02:10.313Z,57.30
2022-11-22T00:04:45.047Z,57.45
2022-11-22T00:07:18.536Z,57.38
2022-11-22T00:09:51.764Z,57.49
2022-11-22T00:12:24.923Z,57.38
2022-11-22T00:14:57.680Z,57.36
2022-11-22T00:17:31.331Z,57.43
2022-11-22T00:20:03.868Z,57.36
2022-11-22T00:22:43.974Z,57.49
2022-11-22T00:25:17.209Z,57.45
2022-11-22T00:27:50.607Z,57.44
2022-11-22T00:30:23.841Z,57.09
2022-11-22T00:32:57.125Z,56.97
2022-11-22T00:35:31.443Z,57.32
2022-11-22T00:38:05.647Z,57.20
2022-11-22T00:40:40.687Z,57.40
2022-11-22T00:43:14.476Z,57.29
2022-11-22T00:45:50.708Z,57.40
2022-11-22T00:48:24.924Z,57.40
2022-11-22T00:50:59.689Z,57.52
2022-11-22T00:53:33.206Z,57.59
2022-11-22T00:56:06.786Z,57.60
2022-11-22T00:58:41.090Z,57.67
2022-11-22T01:01:17.307Z,57.79
2022-11-22T01:03:51.934Z,57.72
2022-11-22T01:06:24.974Z,57.90
2022-11-22T01:08:56.886Z,57.89
2022-11-22T01:11:28.733Z,57.83
2022-11-22T01:14:00.933Z,57.52
2022-11-22T01:16:33.444Z,57.13
2022-11-22T01:19:06.410Z,57.26
2022-11-22T01:21:38.691Z,57.85
2022-11-22T01:24:11.422Z,58.17
2022-11-22T01:26:45.086Z,58.22
2022-11-22T01:29:17.860Z,58.16
2022-11-22T01:31:51.076Z,57.98
2022-11-22T01:34:23.100Z,58.03
2022-11-22T01:36:56.272Z,58.06
2022-11-22T01:39:29.709Z,57.86
2022-11-22T01:42:03.175Z,58.05
2022-11-22T01:44:40.631Z,58.15
2022-11-22T01:47:15.322Z,57.79
2022-11-22T01:49:50.716Z,57.66
2022-11-22T01:52:25.041Z,57.68
2022-11-22T01:55:02.047Z,57.67
2022-11-22T01:57:37.676Z,57.86
2022-11-22T02:00:13.679Z,57.82
2022-11-22T02:02:47.824Z,58.16
2022-11-22T02:05:22.355Z,58.14
2022-11-22T02:07:59.279Z,58.28
2022-11-22T02:10:33.161Z,58.26
2022-11-22T02:13:07.650Z,58.24
2022-11-22T02:15:40.638Z,58.65
2022-11-22T02:18:13.280Z,58.60
2022-11-22T02:20:46.258Z,58.51
2022-11-22T02:23:24.591Z,58.57
2022-11-22T02:25:59.664Z,58.54
2022-11-22T02:28:33.780Z,58.46
2022-11-22T02:31:07.782Z,58.27
2022-11-22T02:33:43.275Z,57.86
2022-11-22T02:36:19.547Z,57.94
2022-11-22T02:38:53.005Z,58.07
2022-11-22T02:41:26.565Z,58.00
2022-11-22T02:43:59.447Z,58.04
2022-11-22T02:46:33.053Z,58.34
2022-11-22T02:49:10.231Z,58.33
2022-11-22T02:51:44.327Z,58.23
2022-11-22T02:54:17.111Z,58.20
2022-11-22T02:56:51.170Z,57.83
2022-11-22T02:59:23.862Z,58.02
2022-11-22T03:02:01.677Z,57.90
2022-11-22T03:04:38.983Z,58.16
2022-11-22T03:07:10.882Z,57.77
2022-11-22T03:09:42.980Z,57.71
2022-11-22T03:12:14.891Z,57.79
2022-11-22T03:14:46.977Z,58.03
2022-11-22T03:17:20.262Z,57.98
2022-11-22T03:19:53.596Z,57.93
2022-11-22T03:22:26.276Z,58.13
2022-11-22T03:25:00.039Z,57.92
2022-11-22T03:27:35.220Z,58.28
2022-11-22T03:30:10.348Z,58.20
2022-11-22T03:32:43.841Z,58.19
2022-11-22T03:35:18.829Z,57.93
2022-11-22T03:37:52.924Z,58.20
2022-11-22T03:40:24.839Z,58.56
2022-11-22T03:42:57.571Z,58.37
2022-11-22T03:45:30.788Z,58.41
2022-11-22T03:48:03.828Z,58.57
2022-11-22T03:50:37.922Z,58.49
2022-11-22T03:53:10.038Z,58.28
2022-11-22T03:55:42.272Z,57.64
2022-11-22T03:58:16.083Z,57.66
2022-11-22T04:00:50.984Z,57.89
2022-11-22T04:03:22.837Z,58.01
2022-11-22T04:05:56.426Z,58.14
2022-11-22T04:08:28.383Z,58.16
2022-11-22T04:11:01.486Z,57.84
2022-11-22T04:13:48.706Z,57.71
2022-11-22T04:16:20.761Z,57.68
2022-11-22T04:18:53.498Z,58.00
2022-11-22T04:21:36.224Z,57.92
2022-11-22T04:24:28.476Z,57.76
2022-11-22T04:27:01.400Z,57.80
2022-11-22T04:29:34.776Z,57.96
2022-11-22T04:32:25.387Z,57.88
2022-11-22T04:34:58.237Z,57.90
2022-11-22T04:37:32.293Z,57.87
2022-11-22T04:40:04.868Z,57.93
2022-11-22T04:42:55.613Z,57.98
2022-11-22T04:45:31.727Z,58.00
2022-11-22T04:48:06.505Z,58.04
2022-11-22T04:50:57.570Z,58.03
2022-11-22T04:53:32.742Z,58.07
2022-11-22T04:56:04.953Z,58.16
2022-11-22T04:58:40.329Z,58.22
2022-11-22T05:01:14.139Z,58.04
2022-11-22T05:03:47.510Z,58.22
2022-11-22T05:06:20.813Z,58.23
2022-11-22T05:08:52.817Z,58.34
2022-11-22T05:11:25.035Z,58.25
2022-11-22T05:13:57.318Z,58.25
2022-11-22T05:16:29.165Z,58.24
2022-11-22T05:19:01.535Z,58.29
2022-11-22T05:21:37.470Z,58.30
2022-11-22T05:24:10.857Z,58.22
2022-11-22T05:26:46.152Z,58.25
2022-11-22T05:29:19.601Z,58.31
2022-11-22T05:31:52.228Z,58.25
2022-11-22T05:34:23.983Z,58.03
2022-11-22T05:36:58.814Z,58.02
2022-11-22T05:39:30.839Z,58.14
2022-11-22T05:42:06.538Z,58.17
2022-11-22T05:44:42.873Z,58.22
2022-11-22T05:47:15.733Z,58.19
2022-11-22T05:49:49.322Z,58.23
2022-11-22T05:52:21.427Z,58.27
2022-11-22T05:54:53.298Z,58.30
2022-11-22T05:57:26.297Z,58.30
2022-11-22T05:59:59.468Z,58.18
2022-11-22T06:02:35.640Z,58.16
2022-11-22T06:05:10.117Z,58.08
2022-11-22T06:07:44.973Z,58.24
2022-11-22T06:10:17.443Z,58.37
2022-11-22T06:12:54.155Z,58.42
2022-11-22T06:15:26.156Z,58.51
2022-11-22T06:17:59.824Z,58.48
2022-11-22T06:20:32.974Z,58.41
2022-11-22T06:23:09.907Z,58.57
2022-11-22T06:25:44.727Z,58.29
2022-11-22T06:28:16.739Z,58.34
2022-11-22T06:30:50.939Z,58.47
2022-11-22T06:33:24.499Z,58.45
2022-11-22T06:35:56.399Z,58.51
2022-11-22T06:38:29.230Z,58.44
2022-11-22T06:41:06.308Z,58.46
2022-11-22T06:43:48.017Z,58.52
2022-11-22T06:46:23.824Z,58.64
2022-11-22T06:48:56.100Z,58.61
2022-11-22T06:51:32.234Z,58.48
2022-11-22T06:54:04.502Z,58.36
2022-11-22T06:56:41.714Z,58.40
2022-11-22T06:59:14.241Z,58.45
2022-11-22T07:01:46.226Z,58.52
2022-11-22T07:04:19.381Z,58.36
2022-11-22T07:06:53.119Z,58.52
2022-11-22T07:09:26.555Z,58.44
2022-11-22T07:12:02.475Z,58.52
2022-11-22T07:14:34.606Z,58.53
2022-11-22T07:17:06.516Z,58.36
2022-11-22T07:19:38.680Z,58.44
2022-11-22T07:22:10.592Z,58.54
2022-11-22T07:24:43.790Z,58.67
2022-11-22T07:27:16.528Z,58.77
2022-11-22T07:29:48.857Z,58.81
2022-11-22T07:32:20.975Z,58.95
2022-11-22T07:34:53.502Z,58.87
2022-11-22T07:37:25.548Z,58.96
2022-11-22T07:39:57.434Z,59.33
2022-11-22T07:42:29.475Z,59.44
2022-11-22T07:45:02.511Z,59.56
2022-11-22T07:47:34.687Z,59.44
2022-11-22T07:50:09.176Z,59.45
2022-11-22T07:52:42.137Z,59.37
2022-11-22T07:55:14.841Z,59.35
2022-11-22T07:57:49.355Z,59.58
2022-11-22T08:00:22.387Z,60.06
2022-11-22T08:02:55.064Z,60.11
2022-11-22T08:05:27.703Z,59.86
2022-11-22T08:08:01.390Z,59.54
2022-11-22T08:10:33.688Z,59.43
2022-11-22T08:13:06.402Z,59.05
2022-11-22T08:15:38.671Z,58.97
2022-11-22T08:18:10.877Z,59.02
2022-11-22T08:20:43.380Z,58.91
2022-11-22T08:23:18.175Z,58.89
2022-11-22T08:25:50.928Z,59.23
2022-11-22T08:28:23.358Z,59.14
2022-11-22T08:31:02.283Z,59.31
2022-11-22T08:33:34.859Z,59.40
2022-11-22T08:36:10.599Z,59.06
2022-11-22T08:38:43.097Z,58.93
2022-11-22T08:41:15.268Z,58.97
2022-11-22T08:43:47.630Z,59.01
2022-11-22T08:46:20.962Z,58.82
2022-11-22T08:48:56.129Z,58.96
2022-11-22T08:51:28.340Z,58.71
2022-11-22T08:54:01.491Z,58.58
2022-11-22T08:56:35.118Z,58.76
2022-11-22T08:59:09.823Z,58.95
2022-11-22T09:01:43.627Z,58.64
2022-11-22T09:04:16.406Z,58.79
2022-11-22T09:09:45.299Z,58.74
2022-11-22T09:12:17.959Z,58.64
2022-11-22T09:14:50.540Z,58.70
2022-11-22T09:17:23.395Z,58.78
2022-11-22T09:19:57.475Z,58.81
2022-11-22T09:22:30.625Z,58.74
2022-11-22T09:25:05.508Z,58.37
2022-11-22T09:27:37.826Z,58.12
2022-11-22T09:30:14.826Z,58.07
2022-11-22T09:32:49.621Z,57.70
2022-11-22T09:35:21.665Z,57.49
2022-11-22T09:37:54.672Z,57.44
2022-11-22T09:40:27.089Z,57.51
2022-11-22T09:43:09.637Z,57.50
2022-11-22T09:46:06.642Z,57.24
2022-11-22T09:48:57.010Z,56.99
2022-11-22T09:51:34.059Z,56.82
2022-11-22T09:54:09.390Z,56.96
2022-11-22T09:56:43.017Z,56.81
2022-11-22T09:59:16.670Z,56.82
2022-11-22T10:01:51.925Z,56.67
2022-11-22T10:04:29.789Z,56.72
2022-11-22T10:07:05.048Z,56.46
2022-11-22T10:09:41.034Z,56.13
2022-11-22T10:12:19.722Z,56.35
2022-11-22T10:14:55.407Z,56.11
2022-11-22T10:17:43.913Z,55.61
2022-11-22T10:20:18.271Z,55.40
2022-11-22T10:22:53.496Z,55.45
2022-11-22T10:25:33.448Z,55.38
2022-11-22T10:28:21.847Z,55.07
2022-11-22T10:31:00.305Z,54.58
2022-11-22T10:33:44.201Z,54.35
2022-11-22T10:36:25.454Z,54.41
2022-11-22T10:39:07.392Z,54.06
2022-11-22T10:41:47.603Z,53.70
2022-11-22T10:44:30.939Z,53.45
2022-11-22T10:47:12.014Z,52.90
2022-11-22T10:49:51.456Z,53.07
2022-11-22T10:52:30.891Z,52.51
2022-11-22T10:55:19.183Z,52.65
2022-11-22T10:57:59.450Z,52.21
2022-11-22T11:00:33.613Z,51.61
2022-11-22T11:03:24.674Z,51.68
2022-11-22T11:11:50.783Z,50.24
2022-11-22T11:14:29.891Z,49.81
2022-11-22T11:17:04.362Z,49.49
2022-11-22T11:19:42.999Z,49.47
2022-11-22T11:22:42.676Z,49.62
2022-11-22T11:25:33.597Z,49.44
2022-11-22T11:28:08.867Z,49.53
2022-11-22T11:30:46.532Z,49.12
2022-11-22T11:33:35.319Z,49.00
2022-11-22T11:36:12.026Z,48.97
2022-11-22T11:38:57.660Z,48.77
2022-11-22T11:41:37.488Z,48.34
2022-11-22T11:44:32.173Z,48.33
2022-11-22T11:47:06.102Z,47.96
2022-11-22T11:49:39.052Z,47.98
2022-11-22T11:52:17.558Z,47.38
2022-11-22T11:54:52.105Z,47.67
2022-11-22T11:57:28.576Z,47.57
2022-11-22T12:00:06.555Z,47.31
2022-11-22T13:27:08.908Z,45.56
2022-11-22T13:29:43.044Z,45.63
2022-11-22T13:32:24.014Z,45.73
2022-11-22T13:35:26.707Z,45.56
2022-11-22T13:38:01.013Z,45.38
2022-11-22T13:40:35.076Z,45.27
2022-11-22T13:43:44.025Z,45.53
2022-11-22T13:46:45.632Z,45.51
2022-11-22T13:49:35.276Z,45.66
2022-11-22T13:52:34.998Z,45.75
2022-11-22T13:55:41.719Z,45.88
2022-11-22T13:58:56.348Z,45.95
2022-11-22T14:01:58.755Z,46.03
2022-11-22T14:04:38.462Z,46.24
2022-11-22T14:07:35.318Z,46.30
2022-11-22T14:10:29.158Z,46.29
2022-11-22T14:13:15.378Z,46.13
2022-11-22T14:15:59.433Z,46.29
2022-11-22T14:19:01.462Z,46.40
2022-11-22T14:21:50.304Z,46.21
2022-11-22T14:24:34.990Z,46.35
2022-11-22T14:27:14.462Z,46.47
2022-11-22T14:30:14.369Z,46.49
2022-11-22T14:32:51.726Z,46.52
2022-11-22T14:35:31.405Z,46.61
2022-11-22T14:38:30.913Z,46.81
2022-11-22T14:41:38.281Z,46.85
2022-11-22T14:44:14.973Z,46.96
2022-11-22T14:46:55.360Z,47.29
2022-11-22T14:49:38.680Z,47.48
2022-11-22T14:52:20.127Z,47.54
2022-11-22T14:54:55.790Z,47.52
2022-11-22T14:57:29.064Z,47.69
2022-11-22T15:00:11.820Z,47.80
2022-11-22T15:03:14.410Z,47.76
2022-11-22T15:09:13.691Z,47.90
2022-11-22T15:09:46.640Z,48.16
2022-11-22T15:12:43.320Z,48.14
2022-11-22T15:57:31.066Z,49.51
2022-11-22T16:00:10.323Z,49.67
2022-11-22T16:02:50.943Z,49.75
2022-11-22T16:06:05.266Z,49.83
2022-11-22T16:08:31.069Z,49.75
2022-11-22T16:11:07.850Z,49.88
2022-11-22T16:13:41.815Z,49.98
2022-11-22T16:16:28.948Z,49.99
2022-11-22T16:19:26.708Z,49.95
2022-11-22T16:22:03.738Z,50.07
2022-11-22T16:24:38.842Z,50.25
2022-11-22T16:27:17.026Z,50.13
2022-11-22T16:29:55.447Z,50.16
2022-11-22T16:32:27.722Z,50.07
2022-11-22T16:35:27.677Z,50.08
2022-11-22T16:37:54.285Z,50.11
2022-11-22T16:40:31.651Z,50.16
2022-11-22T16:43:09.499Z,50.22
2022-11-22T16:45:41.844Z,50.27
2022-11-22T16:48:31.250Z,50.29
2022-11-22T16:51:09.767Z,50.20
2022-11-22T16:53:46.282Z,50.25
2022-11-22T16:56:22.936Z,50.39
2022-11-22T16:58:58.260Z,50.40
2022-11-22T17:01:36.160Z,50.52
2022-11-22T17:04:12.020Z,50.56
2022-11-22T17:06:44.872Z,50.52
2022-11-22T17:09:17.408Z,50.50
2022-11-22T17:11:53.367Z,50.27
2022-11-22T17:14:29.408Z,50.39
2022-11-22T17:17:02.642Z,50.48
2022-11-22T17:19:53.569Z,50.56
2022-11-22T17:22:30.758Z,50.60
2022-11-22T17:25:03.653Z,50.43
2022-11-22T17:27:37.154Z,50.33
2022-11-22T17:30:12.975Z,50.35
2022-11-22T17:32:45.966Z,50.52
2022-11-22T17:35:18.901Z,50.51
2022-11-22T17:37:51.072Z,50.54
2022-11-22T17:40:25.325Z,50.44
2022-11-22T17:42:58.810Z,50.57
2022-11-22T17:45:33.164Z,50.66
2022-11-22T17:48:07.306Z,50.80
2022-11-22T17:50:39.223Z,50.81
2022-11-22T17:53:11.071Z,50.90
2022-11-22T17:56:09.351Z,51.02
2022-11-22T17:58:40.213Z,51.10
2022-11-22T18:01:14.342Z,51.04
2022-11-22T18:03:48.437Z,51.15
2022-11-22T18:06:26.498Z,51.11
2022-11-22T18:09:00.448Z,51.21
2022-11-22T18:11:34.129Z,51.34
2022-11-22T18:14:06.961Z,51.52
2022-11-22T18:16:41.147Z,51.51
2022-11-22T18:19:16.247Z,51.30
2022-11-22T18:21:49.476Z,51.49
2022-11-22T18:24:22.979Z,51.56
2022-11-22T18:26:56.494Z,51.59
2022-11-22T18:29:42.589Z,51.52
2022-11-22T18:32:16.194Z,51.56
2022-11-22T18:34:50.688Z,51.58
2022-11-22T18:37:25.775Z,51.74
2022-11-22T18:39:58.228Z,51.79
2022-11-22T18:42:34.693Z,51.76
2022-11-22T18:45:08.793Z,51.81
2022-11-22T18:47:45.779Z,51.82
2022-11-22T18:50:19.936Z,51.85
2022-11-22T18:52:52.134Z,51.56
2022-11-22T18:55:25.171Z,51.40
2022-11-22T18:57:59.440Z,51.58
2022-11-22T19:00:33.874Z,51.45
2022-11-22T19:03:11.148Z,51.48
2022-11-22T19:05:44.758Z,51.48
2022-11-22T19:08:17.912Z,51.45
2022-11-22T19:10:59.941Z,51.46
2022-11-22T19:13:38.466Z,51.59
2022-11-22T19:16:12.510Z,51.63
2022-11-22T19:18:46.736Z,51.44
2022-11-22T19:21:28.116Z,51.35
2022-11-22T19:24:05.493Z,51.42
2022-11-22T19:26:39.079Z,51.48
2022-11-22T19:29:13.639Z,51.46
2022-11-22T19:31:47.208Z,51.52
2022-11-22T19:34:19.575Z,51.42
2022-11-22T19:36:51.907Z,51.39
2022-11-22T19:39:28.361Z,51.35
2022-11-22T19:42:00.620Z,51.40
2022-11-22T19:44:38.006Z,51.62
2022-11-22T19:47:11.293Z,51.66
2022-11-22T19:49:43.619Z,51.66
2022-11-22T19:52:16.958Z,51.56
2022-11-22T19:54:50.610Z,51.47
2022-11-22T19:57:24.914Z,51.59
2022-11-22T20:00:00.050Z,51.52
2022-11-22T20:02:34.018Z,51.73
2022-11-22T20:05:12.544Z,51.85
2022-11-22T20:07:48.801Z,51.90
2022-11-22T20:10:22.004Z,51.87
2022-11-22T20:12:54.661Z,51.99
2022-11-22T20:15:29.192Z,52.03
2022-11-22T20:18:04.329Z,51.94
2022-11-22T20:20:36.252Z,51.82
2022-11-22T20:23:09.776Z,51.82
2022-11-22T20:25:43.815Z,51.87
2022-11-22T20:28:18.605Z,51.81
2022-11-22T20:30:53.004Z,51.89
2022-11-22T20:33:26.563Z,51.87
2022-11-22T20:36:06.974Z,51.75
2022-11-22T20:38:43.228Z,51.82
2022-11-22T20:41:18.914Z,51.94
2022-11-22T20:43:52.778Z,51.96
2022-11-22T20:46:26.804Z,51.74
2022-11-22T20:49:00.888Z,51.84
2022-11-22T20:51:36.045Z,52.04
2022-11-22T20:54:10.145Z,51.94
2022-11-22T20:56:43.034Z,52.05
2022-11-22T20:59:16.118Z,51.98
2022-11-22T21:01:49.327Z,52.06
2022-11-22T21:04:23.263Z,51.86
2022-11-22T21:06:58.319Z,51.71
2022-11-22T21:09:31.295Z,51.99
2022-11-22T21:12:03.991Z,51.93
2022-11-22T21:14:35.980Z,51.99
2022-11-22T21:17:37.165Z,52.03
2022-11-22T21:20:01.306Z,52.16
2022-11-22T21:22:35.090Z,52.16
2022-11-22T21:25:10.422Z,52.27
2022-11-22T21:27:43.957Z,52.45
2022-11-22T21:30:19.389Z,52.52
2022-11-22T21:32:52.176Z,52.48
2022-11-22T21:35:25.436Z,52.55
2022-11-22T21:38:01.218Z,52.51
2022-11-22T21:40:34.216Z,52.62
2022-11-22T21:43:10.547Z,52.69
2022-11-22T21:45:43.009Z,52.93
2022-11-22T21:48:17.702Z,52.91
2022-11-22T21:50:52.057Z,52.96
2022-11-22T21:53:27.717Z,52.69
2022-11-22T21:56:04.049Z,52.95
2022-11-22T21:58:36.680Z,52.94
2022-11-22T22:01:14.055Z,52.94
2022-11-22T22:03:48.417Z,52.92
2022-11-22T22:06:21.120Z,52.97
2022-11-22T22:08:53.320Z,53.08
2022-11-22T22:11:27.652Z,52.99
2022-11-22T22:13:59.834Z,53.26
2022-11-22T22:16:34.046Z,53.28
2022-11-22T22:19:10.497Z,53.25
2022-11-22T22:21:42.412Z,53.43
2022-11-22T22:24:17.015Z,53.48
2022-11-22T22:26:49.727Z,53.42
2022-11-22T22:29:23.397Z,53.50
2022-11-22T22:31:57.676Z,53.51
2022-11-22T22:34:32.459Z,53.52
2022-11-22T22:37:04.565Z,53.55
2022-11-22T22:39:39.100Z,53.63
2022-11-22T22:42:11.722Z,53.78
2022-11-22T22:44:44.563Z,53.97
2022-11-22T22:47:17.921Z,54.16
2022-11-22T22:49:51.480Z,53.98
2022-11-22T22:52:23.292Z,54.11
2022-11-22T22:54:56.007Z,54.06
2022-11-22T22:57:29.280Z,54.20
2022-11-22T23:00:02.610Z,54.30
2022-11-22T23:02:35.382Z,54.37
2022-11-22T23:05:10.369Z,54.22
2022-11-22T23:07:44.021Z,54.22
2022-11-22T23:10:16.983Z,54.06
2022-11-22T23:12:49.940Z,54.02
2022-11-22T23:15:43.875Z,53.85
2022-11-22T23:18:14.636Z,53.98
2022-11-22T23:20:50.119Z,53.99
2022-11-22T23:23:23.450Z,54.09
2022-11-22T23:26:03.149Z,54.11
2022-11-22T23:28:38.182Z,54.07
2022-11-22T23:31:15.666Z,54.12
2022-11-22T23:33:50.411Z,54.14
2022-11-22T23:36:25.314Z,54.33
2022-11-22T23:38:57.890Z,54.20
2022-11-22T23:41:33.480Z,54.20
2022-11-22T23:44:07.659Z,54.36
2022-11-22T23:46:40.894Z,54.31
2022-11-22T23:49:15.478Z,54.26
2022-11-22T23:51:50.402Z,54.15
2022-11-22T23:54:22.396Z,54.29
2022-11-22T23:56:56.535Z,54.21
2022-11-22T23:59:28.854Z,54.22
